createdAt,value
2023-08-11T00:01:20.264Z,100639.94
2023-08-11T00:03:50.934Z,100657.38
2023-08-11T00:06:21.468Z,100643.28
2023-08-11T00:08:51.859Z,100636.34
2023-08-11T00:11:22.717Z,100633.44
2023-08-11T00:13:53.643Z,100627.28
2023-08-11T00:16:28.545Z,100610.59
2023-08-11T00:18:59.089Z,100612.03
2023-08-11T00:21:29.658Z,100606.63
2023-08-11T00:24:00.082Z,100609.16
2023-08-11T00:26:32.409Z,100608.81
2023-08-11T00:29:02.929Z,100603.34
2023-08-11T00:31:35.084Z,100601.38
2023-08-11T00:34:05.580Z,100610.00
2023-08-11T00:36:36.342Z,100610.78
2023-08-11T00:39:06.930Z,100607.19
2023-08-11T00:41:37.799Z,100611.59
2023-08-11T00:44:08.544Z,100617.91
2023-08-11T00:46:41.383Z,100620.53
2023-08-11T00:49:11.933Z,100599.47
2023-08-11T00:51:42.624Z,100597.63
2023-08-11T00:54:15.556Z,100598.19
2023-08-11T00:56:49.421Z,100559.16
2023-08-11T00:59:21.636Z,100607.50
2023-08-11T01:01:54.034Z,100604.16
2023-08-11T01:04:24.835Z,100552.72
2023-08-11T01:07:07.529Z,100603.94
2023-08-11T01:09:46.359Z,100616.09
2023-08-11T01:12:27.653Z,100611.06
2023-08-11T01:15:08.509Z,100578.19
2023-08-11T01:17:42.867Z,100631.03
2023-08-11T01:20:18.299Z,100630.97
2023-08-11T01:22:50.581Z,100626.38
2023-08-11T01:25:24.093Z,100622.81
2023-08-11T01:27:59.425Z,100620.75
2023-08-11T01:30:32.012Z,100639.72
2023-08-11T01:33:02.868Z,100636.25
2023-08-11T01:35:40.858Z,100637.19
2023-08-11T01:38:13.776Z,100634.66
2023-08-11T01:40:46.499Z,100620.66
2023-08-11T01:43:17.555Z,100614.81
2023-08-11T01:45:50.196Z,100617.91
2023-08-11T01:48:23.326Z,100630.00
2023-08-11T01:50:54.340Z,100619.72
2023-08-11T01:53:24.965Z,100609.31
2023-08-11T01:55:57.643Z,100610.28
2023-08-11T01:58:28.340Z,100615.84
2023-08-11T02:00:58.857Z,100623.72
2023-08-11T02:03:29.518Z,100616.91
2023-08-11T02:06:00.993Z,100606.16
2023-08-11T02:08:31.518Z,100596.19
2023-08-11T02:11:02.413Z,100595.22
2023-08-11T02:13:35.147Z,100610.84
2023-08-11T02:16:06.025Z,100604.06
2023-08-11T02:18:36.521Z,100607.56
2023-08-11T02:21:08.834Z,100600.59
2023-08-11T02:23:39.300Z,100605.97
2023-08-11T02:26:11.466Z,100605.56
2023-08-11T02:28:41.948Z,100598.66
2023-08-11T02:31:12.896Z,100599.63
2023-08-11T02:33:43.643Z,100603.94
2023-08-11T02:36:15.264Z,100603.13
2023-08-11T02:38:46.013Z,100603.22
2023-08-11T02:41:18.075Z,100597.25
2023-08-11T02:43:50.008Z,100614.47
2023-08-11T02:46:20.614Z,100619.03
2023-08-11T02:48:51.183Z,100607.19
2023-08-11T02:51:21.898Z,100615.97
2023-08-11T02:53:53.100Z,100607.69
2023-08-11T02:56:25.208Z,100611.28
2023-08-11T02:58:58.910Z,100616.56
2023-08-11T03:01:29.566Z,100605.00
2023-08-11T03:04:01.793Z,100621.59
2023-08-11T03:06:32.302Z,100628.81
2023-08-11T03:09:02.770Z,100626.41
2023-08-11T03:11:34.841Z,100636.28
2023-08-11T03:14:05.380Z,100627.56
2023-08-11T03:16:36.227Z,100617.41
2023-08-11T03:19:07.155Z,100631.75
2023-08-11T03:21:38.002Z,100637.44
2023-08-11T03:24:09.050Z,100639.50
2023-08-11T03:26:41.101Z,100603.81
2023-08-11T03:29:11.867Z,100647.66
2023-08-11T03:31:42.320Z,100641.81
2023-08-11T03:34:12.841Z,100639.28
2023-08-11T03:36:43.331Z,100635.06
2023-08-11T03:39:13.981Z,100646.53
2023-08-11T03:41:46.067Z,100655.34
2023-08-11T03:44:16.663Z,100627.69
2023-08-11T03:46:47.273Z,100663.50
2023-08-11T03:49:19.101Z,100655.81
2023-08-11T03:51:49.648Z,100651.97
2023-08-11T03:54:28.747Z,100660.75
2023-08-11T03:57:08.468Z,100664.19
2023-08-11T03:59:38.916Z,100660.50
2023-08-11T04:02:10.455Z,100660.97
2023-08-11T04:04:41.156Z,100662.13
2023-08-11T04:07:11.717Z,100678.13
2023-08-11T04:09:46.045Z,100673.88
2023-08-11T04:12:18.208Z,100652.34
2023-08-11T04:14:48.692Z,100660.97
2023-08-11T04:17:19.258Z,100678.56
2023-08-11T04:19:50.577Z,100678.03
2023-08-11T04:22:32.759Z,100679.00
2023-08-11T04:25:08.602Z,100673.28
2023-08-11T04:27:41.206Z,100681.03
2023-08-11T04:30:14.117Z,100663.78
2023-08-11T04:32:45.273Z,100670.13
2023-08-11T04:35:16.148Z,100664.84
2023-08-11T04:37:46.602Z,100677.50
2023-08-11T04:40:17.503Z,100681.75
2023-08-11T04:42:50.236Z,100685.16
2023-08-11T04:45:20.762Z,100682.56
2023-08-11T04:47:51.601Z,100694.44
2023-08-11T04:50:22.465Z,100687.72
2023-08-11T04:52:53.102Z,100689.91
2023-08-11T04:55:23.616Z,100691.72
2023-08-11T04:57:56.361Z,100694.97
2023-08-11T05:00:27.487Z,100691.81
2023-08-11T05:02:58.383Z,100699.31
2023-08-11T05:05:28.992Z,100681.16
2023-08-11T05:07:59.471Z,100684.50
2023-08-11T05:10:30.203Z,100673.69
2023-08-11T05:13:02.643Z,100675.53
2023-08-11T05:15:33.090Z,100682.41
2023-08-11T05:18:04.150Z,100691.25
2023-08-11T05:20:34.842Z,100694.25
2023-08-11T05:23:06.007Z,100685.97
2023-08-11T05:25:36.569Z,100689.44
2023-08-11T05:28:08.979Z,100693.09
2023-08-11T05:30:39.525Z,100689.44
2023-08-11T05:33:10.210Z,100693.09
2023-08-11T05:35:42.640Z,100697.94
2023-08-11T05:38:13.778Z,100702.09
2023-08-11T05:40:46.296Z,100700.47
2023-08-11T05:43:18.804Z,100707.25
2023-08-11T05:45:49.384Z,100707.84
2023-08-11T05:48:20.256Z,100697.91
2023-08-11T05:50:52.252Z,100706.91
2023-08-11T05:53:22.714Z,100682.91
2023-08-11T05:55:53.994Z,100715.41
2023-08-11T05:58:26.138Z,100708.97
2023-08-11T06:00:56.664Z,100706.28
2023-08-11T06:03:32.172Z,100722.13
2023-08-11T06:06:07.367Z,100724.81
2023-08-11T06:08:37.820Z,100719.97
2023-08-11T06:11:08.930Z,100722.88
2023-08-11T06:13:41.098Z,100723.41
2023-08-11T06:16:11.601Z,100718.50
2023-08-11T06:18:42.060Z,100728.13
2023-08-11T06:21:13.020Z,100730.44
2023-08-11T06:23:43.525Z,100735.59
2023-08-11T06:26:14.054Z,100729.56
2023-08-11T06:28:47.056Z,100745.47
2023-08-11T06:31:17.651Z,100744.41
2023-08-11T06:33:48.920Z,100742.28
2023-08-11T06:36:19.388Z,100737.50
2023-08-11T06:38:50.040Z,100732.44
2023-08-11T06:41:20.471Z,100736.88
2023-08-11T06:43:52.686Z,100740.44
2023-08-11T06:46:23.230Z,100748.03
2023-08-11T06:48:53.717Z,100746.41
2023-08-11T06:51:24.393Z,100750.59
2023-08-11T06:53:55.082Z,100756.66
2023-08-11T06:56:25.562Z,100749.28
2023-08-11T06:58:57.734Z,100740.53
2023-08-11T07:01:28.413Z,100741.72
2023-08-11T07:04:01.670Z,100750.19
2023-08-11T07:06:32.596Z,100749.34
2023-08-11T07:09:03.159Z,100756.84
2023-08-11T07:11:33.650Z,100740.63
2023-08-11T07:14:05.729Z,100746.81
2023-08-11T07:16:36.285Z,100757.38
2023-08-11T07:19:07.064Z,100750.78
2023-08-11T07:21:37.597Z,100758.94
2023-08-11T07:24:08.858Z,100764.44
2023-08-11T07:26:39.337Z,100767.94
2023-08-11T07:29:11.389Z,100767.06
2023-08-11T07:31:42.394Z,100741.44
2023-08-11T07:34:13.121Z,100765.81
2023-08-11T07:36:45.279Z,100786.97
2023-08-11T07:41:49.066Z,100790.44
2023-08-11T07:44:21.271Z,100802.63
2023-08-11T07:46:52.225Z,100790.66
2023-08-11T07:49:22.867Z,100805.38
2023-08-11T07:51:53.425Z,100804.44
2023-08-11T07:54:24.152Z,100801.22
2023-08-11T07:56:54.618Z,100813.69
2023-08-11T07:59:26.806Z,100817.41
2023-08-11T08:01:57.301Z,100821.88
2023-08-11T08:04:27.909Z,100810.72
2023-08-11T08:06:59.114Z,100808.25
2023-08-11T08:09:29.767Z,100816.34
2023-08-11T08:12:00.196Z,100816.59
2023-08-11T08:14:33.092Z,100808.91
2023-08-11T08:17:04.811Z,100829.22
2023-08-11T08:19:35.358Z,100812.09
2023-08-11T08:22:05.770Z,100823.84
2023-08-11T08:24:36.460Z,100819.56
2023-08-11T08:27:08.430Z,100815.78
2023-08-11T08:29:40.849Z,100835.16
2023-08-11T08:32:11.546Z,100833.88
2023-08-11T08:34:42.288Z,100839.59
2023-08-11T08:37:12.832Z,100838.00
2023-08-11T08:39:43.536Z,100832.19
2023-08-11T08:42:15.126Z,100826.09
2023-08-11T08:44:48.444Z,100820.81
2023-08-11T08:47:21.631Z,100807.72
2023-08-11T08:49:52.677Z,100809.97
2023-08-11T08:52:24.754Z,100818.97
2023-08-11T08:54:55.727Z,100831.19
2023-08-11T08:57:28.890Z,100833.31
2023-08-11T09:00:01.319Z,100826.88
2023-08-11T09:02:48.143Z,100840.22
2023-08-11T09:05:21.495Z,100829.66
2023-08-11T09:07:54.776Z,100831.13
2023-08-11T09:10:26.129Z,100833.25
2023-08-11T09:12:59.613Z,100832.56
2023-08-11T09:15:42.616Z,100830.19
2023-08-11T09:18:27.091Z,100826.41
2023-08-11T09:20:57.810Z,100837.56
2023-08-11T09:23:35.873Z,100836.38
2023-08-11T09:26:09.482Z,100841.19
2023-08-11T09:32:02.180Z,100850.41
2023-08-11T09:34:32.786Z,100845.31
2023-08-11T09:38:08.691Z,100858.63
2023-08-11T09:41:04.545Z,100866.63
2023-08-11T09:43:40.374Z,100867.66
2023-08-11T09:46:22.253Z,100854.66
2023-08-11T09:49:06.993Z,100868.81
2023-08-11T09:54:38.126Z,100876.19
2023-08-11T09:57:15.325Z,100872.91
2023-08-11T09:59:50.300Z,100883.28
2023-08-11T10:03:17.044Z,100902.56
2023-08-11T10:06:11.114Z,100897.31
2023-08-11T10:08:49.545Z,100870.47
2023-08-11T10:11:24.975Z,100904.41
2023-08-11T10:14:24.635Z,100892.25
2023-08-11T10:17:22.118Z,100893.19
2023-08-11T10:20:00.382Z,100856.81
2023-08-11T10:22:33.312Z,100890.41
2023-08-11T10:25:14.028Z,100905.16
2023-08-11T10:27:46.484Z,100900.59
2023-08-11T10:30:18.512Z,100901.47
2023-08-11T10:32:49.267Z,100890.16
2023-08-11T10:35:23.510Z,100898.13
2023-08-11T10:38:16.176Z,100909.25
2023-08-11T10:40:50.841Z,100903.81
2023-08-11T10:43:44.319Z,100911.56
2023-08-11T10:46:30.381Z,100909.91
2023-08-11T10:49:25.903Z,100904.78
2023-08-11T10:51:59.425Z,100907.31
2023-08-11T10:54:31.827Z,100907.28
2023-08-11T10:57:09.121Z,100899.44
2023-08-11T10:59:49.169Z,100916.88
2023-08-11T11:02:23.987Z,100903.81
2023-08-11T11:04:59.071Z,100916.06
2023-08-11T11:07:29.789Z,100923.09
2023-08-11T11:10:05.931Z,100909.13
2023-08-11T11:12:39.223Z,100901.22
2023-08-11T11:15:10.816Z,100915.31
2023-08-11T11:17:42.593Z,100914.38
2023-08-11T11:20:19.137Z,100912.66
2023-08-11T11:22:55.798Z,100910.94
2023-08-11T11:25:28.060Z,100914.50
2023-08-11T11:28:01.731Z,100913.72
2023-08-11T11:30:32.322Z,100905.09
2023-08-11T11:33:04.815Z,100897.31
2023-08-11T11:35:36.500Z,100908.66
2023-08-11T11:38:09.408Z,100913.13
2023-08-11T11:40:58.216Z,100912.22
2023-08-11T11:43:32.618Z,100907.88
2023-08-11T11:46:16.475Z,100912.28
2023-08-11T11:49:07.099Z,100838.75
2023-08-11T11:51:48.712Z,100935.84
2023-08-11T11:54:24.609Z,100934.91
2023-08-11T11:57:05.438Z,100916.59
2023-08-11T12:00:54.740Z,100928.72
2023-08-11T12:03:25.796Z,100925.19
2023-08-11T12:06:01.620Z,100926.94
2023-08-11T12:08:37.673Z,100926.94
2023-08-11T12:11:19.512Z,100904.38
2023-08-11T12:13:54.643Z,100923.59
2023-08-11T12:16:28.225Z,100925.41
2023-08-11T12:19:23.737Z,100927.19
2023-08-11T12:22:08.821Z,100920.19
2023-08-11T12:24:56.841Z,100918.47
2023-08-11T12:27:36.377Z,100914.94
2023-08-11T12:30:08.832Z,100925.44
2023-08-11T12:32:47.992Z,100918.47
2023-08-11T12:35:19.444Z,100915.00
2023-08-11T12:37:50.377Z,100915.00
2023-08-11T12:41:30.493Z,100928.97
2023-08-11T12:44:05.263Z,100925.44
2023-08-11T12:49:33.763Z,100930.81
2023-08-11T12:52:07.577Z,100929.97
2023-08-11T12:54:53.226Z,100940.47
2023-08-11T12:57:27.832Z,100929.97
2023-08-11T13:00:01.694Z,100922.94
2023-08-11T13:02:36.924Z,100903.06
2023-08-11T13:05:08.421Z,100932.59
2023-08-11T13:07:41.540Z,100924.00
2023-08-11T13:10:18.373Z,100934.38
2023-08-11T13:12:49.401Z,100933.47
2023-08-11T13:15:25.478Z,100936.84
2023-08-11T13:17:57.748Z,100894.28
2023-08-11T13:20:40.496Z,100942.88
2023-08-11T13:24:04.034Z,100944.66
2023-08-11T13:27:36.048Z,100941.16
2023-08-11T13:30:50.652Z,100947.19
2023-08-11T13:42:34.952Z,100940.94
2023-08-11T13:45:48.656Z,100944.56
2023-08-11T13:48:25.085Z,100939.41
2023-08-11T13:51:23.959Z,100941.19
2023-08-11T13:54:09.423Z,100950.03
2023-08-11T13:57:18.305Z,100950.03
2023-08-11T14:00:10.483Z,100950.13
2023-08-11T14:05:58.960Z,100957.31
2023-08-11T14:08:50.980Z,100938.19
2023-08-11T14:11:39.801Z,100942.59
2023-08-11T14:14:24.936Z,100950.41
2023-08-11T14:17:46.393Z,100943.44
2023-08-11T14:20:57.332Z,100949.56
2023-08-11T14:26:57.695Z,100955.53
2023-08-11T14:29:31.909Z,100954.63
2023-08-11T14:32:18.255Z,100947.56
2023-08-11T14:34:53.043Z,100952.78
2023-08-11T14:37:24.408Z,100951.91
2023-08-11T14:39:59.367Z,100944.72
2023-08-11T14:42:32.203Z,100938.63
2023-08-11T14:45:04.356Z,100935.16
2023-08-11T14:47:34.977Z,100931.81
2023-08-11T14:50:10.874Z,100935.06
2023-08-11T14:52:41.486Z,100917.75
2023-08-11T14:55:20.768Z,100923.00
2023-08-11T14:57:58.464Z,100924.72
2023-08-11T15:00:33.018Z,100919.31
2023-08-11T15:03:03.744Z,100927.03
2023-08-11T15:05:36.968Z,100926.13
2023-08-11T15:08:11.928Z,100921.75
2023-08-11T15:11:01.726Z,100917.44
2023-08-11T15:13:32.408Z,100920.06
2023-08-11T15:16:03.027Z,100928.81
2023-08-11T15:18:33.651Z,100932.28
2023-08-11T15:21:07.165Z,100930.44
2023-08-11T15:23:41.251Z,100939.25
2023-08-11T15:26:16.001Z,100929.69
2023-08-11T15:28:49.485Z,100927.13
2023-08-11T15:31:25.373Z,100910.88
2023-08-11T15:33:56.050Z,100932.53
2023-08-11T15:36:29.937Z,100934.22
2023-08-11T15:39:01.432Z,100935.94
2023-08-11T15:41:39.035Z,100934.22
2023-08-11T15:44:09.974Z,100929.75
2023-08-11T15:46:40.624Z,100927.91
2023-08-11T15:49:13.629Z,100930.41
2023-08-11T15:51:44.181Z,100929.50
2023-08-11T15:54:17.913Z,100932.19
2023-08-11T15:56:52.567Z,100935.69
2023-08-11T15:59:23.176Z,100930.44
2023-08-11T16:02:10.184Z,100902.88
2023-08-11T16:04:46.301Z,100934.06
2023-08-11T16:07:17.661Z,100916.59
2023-08-11T16:09:49.968Z,100913.13
2023-08-11T16:12:24.139Z,100913.13
2023-08-11T16:14:55.854Z,100918.53
2023-08-11T16:17:28.277Z,100915.13
2023-08-11T16:19:58.978Z,100929.19
2023-08-11T16:22:29.531Z,100936.16
2023-08-11T16:25:00.017Z,100926.56
2023-08-11T16:27:35.189Z,100932.66
2023-08-11T16:30:09.668Z,100924.78
2023-08-11T16:32:48.695Z,100930.91
2023-08-11T16:35:21.700Z,100931.84
2023-08-11T16:37:57.695Z,100929.28
2023-08-11T16:40:29.418Z,100934.50
2023-08-11T16:43:05.091Z,100929.13
2023-08-11T16:45:38.613Z,100930.88
2023-08-11T16:48:10.128Z,100935.22
2023-08-11T16:50:40.718Z,100929.91
2023-08-11T16:53:11.312Z,100934.28
2023-08-11T16:55:44.792Z,100942.09
2023-08-11T16:58:22.260Z,100944.66
2023-08-11T17:00:56.621Z,100935.94
2023-08-11T17:03:27.982Z,100951.59
2023-08-11T17:06:04.805Z,100948.91
2023-08-11T17:08:38.435Z,100943.66
2023-08-11T17:11:14.042Z,100942.72
2023-08-11T17:13:49.108Z,100937.53
2023-08-11T17:16:21.049Z,100926.94
2023-08-11T17:18:51.745Z,100878.38
2023-08-11T17:21:22.256Z,100928.72
2023-08-11T17:24:07.684Z,100918.28
2023-08-11T17:26:50.316Z,100930.28
2023-08-11T17:29:22.670Z,100936.41
2023-08-11T17:31:53.431Z,100923.41
2023-08-11T17:34:24.091Z,100929.53
2023-08-11T17:36:58.060Z,100928.66
2023-08-11T17:39:29.099Z,100932.13
2023-08-11T17:42:11.869Z,100923.34
2023-08-11T17:44:44.223Z,100924.25
2023-08-11T17:47:15.202Z,100933.03
2023-08-11T17:49:45.733Z,100937.31
2023-08-11T17:52:18.910Z,100928.50
2023-08-11T17:54:50.897Z,100933.75
2023-08-11T17:57:30.484Z,100930.34
2023-08-11T18:00:07.766Z,100918.97
2023-08-11T18:02:42.154Z,100919.91
2023-08-11T18:05:13.151Z,100935.69
2023-08-11T18:07:45.680Z,100917.38
2023-08-11T18:10:16.162Z,100916.50
2023-08-11T18:12:53.613Z,100921.75
2023-08-11T18:15:26.127Z,100923.41
2023-08-11T18:17:59.814Z,100912.91
2023-08-11T18:20:30.348Z,100916.44
2023-08-11T18:23:01.334Z,100919.00
2023-08-11T18:25:34.281Z,100911.13
2023-08-11T18:28:07.756Z,100867.16
2023-08-11T18:30:41.399Z,100916.44
2023-08-11T18:33:12.010Z,100921.63
2023-08-11T18:35:44.896Z,100917.22
2023-08-11T18:38:21.484Z,100907.28
2023-08-11T18:40:52.796Z,100909.78
2023-08-11T18:43:24.279Z,100912.47
2023-08-11T18:46:03.685Z,100915.78
2023-08-11T18:48:33.539Z,100908.75
2023-08-11T18:51:04.171Z,100913.06
2023-08-11T18:53:34.893Z,100912.25
2023-08-11T18:56:11.222Z,100914.19
2023-08-11T18:58:44.940Z,100912.47
2023-08-11T19:01:17.088Z,100895.72
2023-08-11T19:03:47.727Z,100910.47
2023-08-11T19:06:18.256Z,100913.25
2023-08-11T19:08:48.694Z,100909.75
2023-08-11T19:11:19.215Z,100907.16
2023-08-11T19:13:49.585Z,100909.91
2023-08-11T19:16:22.976Z,100909.00
2023-08-11T19:18:53.461Z,100898.47
2023-08-11T19:21:24.025Z,100899.28
2023-08-11T19:23:55.430Z,100901.97
2023-08-11T19:26:25.974Z,100904.69
2023-08-11T19:28:57.244Z,100913.56
2023-08-11T19:31:29.380Z,100924.13
2023-08-11T19:34:00.531Z,100913.66
2023-08-11T19:36:30.983Z,100914.50
2023-08-11T19:39:01.448Z,100919.75
2023-08-11T19:41:31.898Z,100932.00
2023-08-11T19:44:02.358Z,100926.81
2023-08-11T19:46:34.609Z,100924.94
2023-08-11T19:49:05.102Z,100927.41
2023-08-11T19:51:36.045Z,100893.66
2023-08-11T19:54:06.552Z,100934.34
2023-08-11T19:56:37.058Z,100936.91
2023-08-11T19:59:07.711Z,100935.09
2023-08-11T20:01:39.936Z,100941.28
2023-08-11T20:04:10.598Z,100928.03
2023-08-11T20:06:41.022Z,100940.38
2023-08-11T20:09:12.343Z,100940.53
2023-08-11T20:11:42.780Z,100949.28
2023-08-11T20:14:13.190Z,100948.34
2023-08-11T20:16:45.380Z,100942.09
2023-08-11T20:19:15.928Z,100934.09
2023-08-11T20:21:46.471Z,100929.59
2023-08-11T20:24:18.504Z,100917.91
2023-08-11T20:26:48.923Z,100921.94
2023-08-11T20:29:19.392Z,100927.72
2023-08-11T20:31:55.630Z,100931.78
2023-08-11T20:34:28.205Z,100916.94
2023-08-11T20:36:58.919Z,100928.09
2023-08-11T20:39:29.607Z,100883.94
2023-08-11T20:42:00.054Z,100932.47
2023-08-11T20:44:30.590Z,100935.22
2023-08-11T20:47:03.504Z,100921.16
2023-08-11T20:49:34.096Z,100923.88
2023-08-11T20:52:04.551Z,100924.91
2023-08-11T20:54:35.527Z,100923.13
2023-08-11T20:57:06.054Z,100918.06
2023-08-11T20:59:36.552Z,100910.25
2023-08-11T21:02:08.834Z,100915.22
2023-08-11T21:04:39.290Z,100914.22
2023-08-11T21:07:10.035Z,100919.47
2023-08-11T21:09:40.685Z,100915.97
2023-08-11T21:12:11.782Z,100903.34
2023-08-11T21:14:42.262Z,100912.66
2023-08-11T21:17:14.650Z,100915.13
2023-08-11T21:19:45.296Z,100904.53
2023-08-11T21:22:15.812Z,100912.34
2023-08-11T21:24:46.217Z,100921.88
2023-08-11T21:27:18.536Z,100918.28
2023-08-11T21:29:51.902Z,100923.53
2023-08-11T21:32:24.150Z,100916.28
2023-08-11T21:34:54.659Z,100924.78
2023-08-11T21:37:25.122Z,100927.94
2023-08-11T21:39:55.697Z,100918.88
2023-08-11T21:42:26.181Z,100922.19
2023-08-11T21:44:56.773Z,100917.50
2023-08-11T21:47:28.844Z,100924.09
2023-08-11T21:49:59.373Z,100922.72
2023-08-11T21:52:29.719Z,100920.34
2023-08-11T21:55:00.214Z,100922.50
2023-08-11T21:57:30.793Z,100912.78
2023-08-11T22:00:01.465Z,100916.31
2023-08-11T22:02:34.021Z,100918.06
2023-08-11T22:05:04.597Z,100925.09
2023-08-11T22:07:35.003Z,100917.28
2023-08-11T22:10:06.005Z,100926.63
2023-08-11T22:12:36.518Z,100921.94
2023-08-11T22:15:08.739Z,100921.97
2023-08-11T22:17:40.852Z,100921.91
2023-08-11T22:20:12.301Z,100915.78
2023-08-11T22:22:42.937Z,100912.06
2023-08-11T22:25:15.634Z,100920.22
2023-08-11T22:27:46.394Z,100912.38
2023-08-11T22:30:18.119Z,100907.84
2023-08-11T22:32:50.184Z,100900.78
2023-08-11T22:35:21.359Z,100901.75
2023-08-11T22:37:51.894Z,100892.63
2023-08-11T22:40:22.521Z,100889.59
2023-08-11T22:42:52.880Z,100902.25
2023-08-11T22:45:23.455Z,100899.31
2023-08-11T22:47:55.607Z,100913.69
2023-08-11T22:50:26.246Z,100907.53
2023-08-11T22:52:56.898Z,100916.72
2023-08-11T22:55:27.842Z,100898.91
2023-08-11T22:57:59.510Z,100916.31
2023-08-11T23:00:30.097Z,100905.50
2023-08-11T23:03:02.340Z,100911.56
2023-08-11T23:05:32.843Z,100910.34
2023-08-11T23:08:03.389Z,100898.09
2023-08-11T23:10:33.750Z,100916.84
2023-08-11T23:13:04.256Z,100882.63
2023-08-11T23:15:34.722Z,100918.94
2023-08-11T23:18:07.166Z,100918.22
2023-08-11T23:20:38.584Z,100879.78
2023-08-11T23:23:10.727Z,100914.66
2023-08-11T23:25:41.178Z,100913.53
2023-08-11T23:28:12.385Z,100908.22
2023-08-11T23:30:42.844Z,100906.53
2023-08-11T23:33:14.978Z,100911.47
2023-08-11T23:35:45.929Z,100910.56
2023-08-11T23:38:16.971Z,100902.34
2023-08-11T23:40:47.453Z,100893.06
2023-08-11T23:43:18.776Z,100894.06
2023-08-11T23:45:49.319Z,100894.69
2023-08-11T23:48:21.615Z,100885.94
2023-08-11T23:50:52.297Z,100897.94
2023-08-11T23:53:22.747Z,100901.25
2023-08-11T23:55:54.381Z,100870.25
2023-08-11T23:58:24.848Z,100883.72
